Time;durP1;ratioP1;P1;durP2;ratioP2;P2;SDS_P1;SDS_P2;PMS_P1;PMS_P2;Temp;Humidity;BMP_temperature;BMP_pressure;BME280_temperature;BME280_humidity;BME280_pressure;Samples;Min_cycle;Max_cycle;Signal;HPM_P1;HPM_P2
2022/01/31 00:00:47;;;;;;;65.70;61.17;;;;;;;9.01;100.00;102021.90;1823640;76;86669;-72
2022/01/31 00:06:29;;;;;;;64.57;60.37;;;;;;;9.05;100.00;102021.70;1892302;75;85427;-72
2022/01/31 00:12:17;;;;;;;65.33;61.03;;;;;;;9.03;100.00;102023.86;1912383;72;85388;-71
2022/01/31 00:18:00;;;;;;;63.80;59.53;;;;;;;9.21;100.00;102045.86;1944476;71;39601;-74
2022/01/31 00:23:44;;;;;;;66.77;62.50;;;;;;;9.23;100.00;102038.69;1948626;73;86450;-72
2022/01/31 00:29:28;;;;;;;63.83;59.90;;;;;;;9.17;100.00;102032.20;1849497;76;86580;-74
2022/01/31 00:35:13;;;;;;;63.83;59.93;;;;;;;9.14;100.00;102040.47;1870012;75;86716;-73
2022/01/31 00:40:57;;;;;;;63.77;60.10;;;;;;;9.03;100.00;102042.72;1804409;78;85598;-73
2022/01/31 00:46:45;;;;;;;62.33;58.57;;;;;;;8.98;100.00;102045.42;1810090;78;86326;-71
2022/01/31 00:52:29;;;;;;;60.50;57.00;;;;;;;8.98;100.00;102019.09;1913345;74;86188;-73
2022/01/31 00:58:13;;;;;;;62.70;59.10;;;;;;;8.91;100.00;102036.38;1912502;74;86056;-71
2022/01/31 01:03:57;;;;;;;59.90;56.40;;;;;;;8.79;100.00;102017.56;1819492;78;85555;-73
2022/01/31 01:09:44;;;;;;;57.20;53.83;;;;;;;8.68;100.00;102024.80;1830800;76;85486;-71
2022/01/31 01:15:29;;;;;;;55.77;52.43;;;;;;;8.81;100.00;102023.72;1790163;78;86405;-74
2022/01/31 01:21:13;;;;;;;53.33;50.33;;;;;;;8.80;100.00;102019.80;1916482;74;86461;-72
2022/01/31 01:26:57;;;;;;;51.60;48.60;;;;;;;8.83;100.00;102004.06;1810033;78;85439;-71
2022/01/31 01:32:58;;;;;;;48.03;45.33;;;;;;;8.81;100.00;102013.17;1877409;75;86320;-73
2022/01/31 01:38:36;;;;;;;48.17;45.40;;;;;;;8.74;100.00;101997.22;1899166;73;86254;-75
2022/01/31 01:44:22;;;;;;;47.77;45.17;;;;;;;8.61;100.00;101991.41;1906763;73;86086;-74
2022/01/31 01:50:07;;;;;;;48.37;45.37;;;;;;;8.58;100.00;101976.67;1982912;71;39588;-74
2022/01/31 01:55:53;;;;;;;46.33;43.80;;;;;;;8.46;100.00;101965.64;1970821;72;86135;-73
2022/01/31 02:04:52;;;;;;;50.90;47.80;;;;;;;8.33;100.00;101971.97;1830722;76;86694;-71
2022/01/31 02:10:36;;;;;;;50.37;47.50;;;;;;;8.21;100.00;101978.88;1870669;75;86091;-74
2022/01/31 02:16:22;;;;;;;49.80;46.90;;;;;;;8.14;100.00;101983.14;1921817;74;86169;-73
2022/01/31 02:22:06;;;;;;;50.10;47.20;;;;;;;8.09;100.00;101986.33;1941340;70;39540;-74
2022/01/31 02:27:50;;;;;;;49.73;46.83;;;;;;;8.15;100.00;101998.67;1972047;71;86312;-72
2022/01/31 02:33:35;;;;;;;47.97;45.17;;;;;;;8.16;100.00;102012.81;1913865;74;86304;-73
2022/01/31 02:39:21;;;;;;;51.03;48.07;;;;;;;8.23;100.00;102017.67;1914675;74;86075;-72
2022/01/31 02:45:06;;;;;;;51.53;48.53;;;;;;;8.18;100.00;101998.18;1980249;71;39637;-71
2022/01/31 02:50:51;;;;;;;47.33;44.20;;;;;;;8.22;100.00;101968.94;1842066;76;85471;-74
2022/01/31 02:56:40;;;;;;;45.60;43.03;;;;;;;8.12;100.00;101969.26;1883703;74;86380;-73
2022/01/31 03:02:23;;;;;;;48.23;45.63;;;;;;;8.03;100.00;101976.23;1906605;73;86393;-74
2022/01/31 03:08:07;;;;;;;45.10;42.43;;;;;;;8.00;100.00;101978.11;1982842;70;39691;-74
2022/01/31 03:13:52;;;;;;;45.83;43.33;;;;;;;8.09;100.00;101976.10;1843633;76;86510;-73
2022/01/31 03:19:38;;;;;;;47.30;44.33;;;;;;;8.03;100.00;101974.31;1873869;75;85418;-70
2022/01/31 03:25:22;;;;;;;46.77;43.90;;;;;;;7.96;100.00;101990.17;1906650;73;86027;-70
2022/01/31 03:31:07;;;;;;;47.17;44.33;;;;;;;8.02;100.00;101972.63;1976023;71;39528;-73
2022/01/31 03:36:51;;;;;;;43.47;40.70;;;;;;;8.12;100.00;101972.87;1836578;76;86843;-71
2022/01/31 03:42:35;;;;;;;41.20;39.00;;;;;;;8.12;100.00;101964.57;1891431;74;86455;-73
2022/01/31 03:48:20;;;;;;;38.57;36.47;;;;;;;8.14;100.00;101961.00;1913885;72;86085;-71
2022/01/31 03:54:06;;;;;;;40.90;38.50;;;;;;;8.23;100.00;101972.01;1983477;71;39674;-71
2022/01/31 03:59:50;;;;;;;40.30;37.90;;;;;;;8.25;100.00;101980.08;1820242;76;86345;-72
2022/01/31 04:05:33;;;;;;;38.43;36.23;;;;;;;8.35;100.00;101972.55;1865257;75;86082;-70
2022/01/31 04:11:17;;;;;;;38.87;36.40;;;;;;;8.34;100.00;101961.20;1936499;73;85558;-74
2022/01/31 04:17:02;;;;;;;38.03;35.83;;;;;;;8.39;100.00;101976.52;1978291;71;39560;-73
2022/01/31 04:22:52;;;;;;;38.23;35.90;;;;;;;8.41;100.00;101970.21;1897992;74;86154;-72
2022/01/31 04:28:39;;;;;;;36.20;33.90;;;;;;;8.40;100.00;101967.98;1864598;75;84893;-73
2022/01/31 04:34:18;;;;;;;35.13;33.13;;;;;;;8.43;100.00;101997.94;1938047;73;86684;-73
2022/01/31 04:40:05;;;;;;;38.17;35.17;;;;;;;8.38;100.00;101997.86;1986638;71;45974;-70
2022/01/31 04:45:49;;;;;;;35.30;33.20;;;;;;;8.29;100.00;101992.38;1842302;76;86319;-71
2022/01/31 04:51:34;;;;;;;35.57;33.10;;;;;;;8.29;100.00;101997.04;1897568;73;86099;-71
2022/01/31 04:57:19;;;;;;;35.23;33.00;;;;;;;8.32;100.00;101961.97;1922583;72;86276;-74
2022/01/31 05:03:13;;;;;;;34.50;32.30;;;;;;;8.33;100.00;101971.97;1834514;77;43840;-70
2022/01/31 05:08:49;;;;;;;33.50;31.43;;;;;;;8.35;100.00;101984.47;1848820;76;86573;-73
2022/01/31 05:14:33;;;;;;;30.10;28.10;;;;;;;8.44;100.00;101991.86;1809305;78;86358;-72
2022/01/31 05:20:18;;;;;;;29.93;28.10;;;;;;;8.45;100.00;102011.02;1913778;74;86644;-73
2022/01/31 05:26:02;;;;;;;32.50;30.40;;;;;;;8.46;100.00;102004.94;1978026;70;39606;-73
2022/01/31 05:31:46;;;;;;;30.37;28.50;;;;;;;8.40;100.00;101998.44;1903635;74;86632;-71
2022/01/31 05:37:30;;;;;;;30.90;29.03;;;;;;;8.50;100.00;102024.13;1888355;73;86447;-71
2022/01/31 05:43:16;;;;;;;33.30;30.93;;;;;;;8.53;100.00;102059.64;1913161;74;85547;-75
2022/01/31 05:49:01;;;;;;;49.30;46.33;;;;;;;8.17;100.00;102082.86;1987082;71;39392;-72
2022/01/31 05:54:45;;;;;;;45.40;42.60;;;;;;;7.74;100.00;102088.67;1909211;74;86168;-74
2022/01/31 06:00:31;;;;;;;46.37;43.60;;;;;;;7.69;100.00;102066.41;1879353;74;86191;-74
2022/01/31 06:06:14;;;;;;;37.87;35.47;;;;;;;7.61;100.00;102057.06;1909608;73;86159;-73
2022/01/31 06:12:01;;;;;;;40.10;37.50;;;;;;;7.63;100.00;102064.57;1813237;78;86868;-72
2022/01/31 06:17:44;;;;;;;42.70;40.00;;;;;;;7.56;100.00;102066.07;1887869;74;86072;-71
2022/01/31 06:23:29;;;;;;;43.50;41.10;;;;;;;7.45;100.00;102081.21;1831687;78;85530;-70
2022/01/31 06:29:13;;;;;;;46.03;43.10;;;;;;;7.42;100.00;102075.62;1917732;72;85336;-74
2022/01/31 06:34:59;;;;;;;44.20;41.53;;;;;;;7.54;100.00;102075.66;1813071;78;86686;-73
2022/01/31 06:44:00;;;;;;;37.70;35.30;;;;;;;7.78;100.00;102069.14;1983743;69;39594;-72
2022/01/31 06:49:44;;;;;;;37.67;35.27;;;;;;;7.84;100.00;102102.75;1880642;75;85955;-71
2022/01/31 06:55:29;;;;;;;40.90;38.50;;;;;;;7.74;100.00;102103.88;1908150;73;86403;-72
2022/01/31 07:01:16;;;;;;;47.30;44.23;;;;;;;7.83;100.00;102152.80;1917009;74;86545;-74
2022/01/31 07:06:59;;;;;;;66.67;62.10;;;;;;;7.03;100.00;102168.70;1891396;74;86371;-74
2022/01/31 07:12:49;;;;;;;67.33;62.37;;;;;;;6.70;100.00;102195.29;1810099;78;86539;-73
2022/01/31 07:18:29;;;;;;;66.17;61.70;;;;;;;6.59;100.00;102183.63;1836300;77;86214;-72
2022/01/31 07:24:21;;;;;;;67.93;62.80;;;;;;;6.58;100.00;102199.87;1944807;71;86128;-74
2022/01/31 07:30:07;;;;;;;62.17;57.77;;;;;;;6.58;100.00;102208.16;1980466;70;39681;-73
2022/01/31 07:35:53;;;;;;;63.83;59.43;;;;;;;6.54;100.00;102245.56;1848015;76;86314;-72
2022/01/31 07:41:38;;;;;;;69.83;65.20;;;;;;;6.51;100.00;102312.23;1887784;73;86494;-71
2022/01/31 07:47:23;;;;;;;68.67;64.27;;;;;;;6.42;100.00;102258.40;1919845;73;86323;-74
2022/01/31 07:53:09;;;;;;;64.37;60.10;;;;;;;6.29;100.00;102259.34;1944970;71;39706;-72
2022/01/31 07:58:53;;;;;;;61.70;57.63;;;;;;;6.17;100.00;102274.88;1890635;74;86161;-74
2022/01/31 08:04:38;;;;;;;58.63;54.73;;;;;;;6.20;100.00;102279.45;1821009;78;85280;-75
2022/01/31 08:10:22;;;;;;;58.07;54.27;;;;;;;6.18;100.00;102275.20;1944526;73;85416;-73
2022/01/31 08:16:14;;;;;;;52.60;49.13;;;;;;;6.28;100.00;102274.20;1975598;71;39740;-68
2022/01/31 08:21:58;;;;;;;50.33;47.13;;;;;;;6.49;100.00;102285.41;1893418;74;86512;-71
2022/01/31 08:27:45;;;;;;;48.73;45.53;;;;;;;6.62;100.00;102279.79;1794807;78;85991;-70
2022/01/31 08:33:35;;;;;;;49.03;45.90;;;;;;;6.72;100.00;102278.73;1877655;76;86327;-70
2022/01/31 08:39:22;;;;;;;45.77;42.47;;;;;;;6.88;100.00;102275.43;1914981;73;86308;-72
2022/01/31 08:45:10;;;;;;;46.50;43.40;;;;;;;6.98;100.00;102284.56;1976523;71;39579;-76
2022/01/31 08:50:56;;;;;;;44.50;41.80;;;;;;;7.01;100.00;102286.36;1850880;76;85406;-71
2022/01/31 08:56:44;;;;;;;43.13;40.33;;;;;;;7.03;100.00;102304.92;1844335;76;86560;-71
2022/01/31 09:02:38;;;;;;;41.60;38.60;;;;;;;7.15;100.00;102318.84;1907972;73;86030;-74
2022/01/31 09:08:15;;;;;;;38.60;35.90;;;;;;;7.23;100.00;102342.88;1925974;71;85936;-72
2022/01/31 09:14:00;;;;;;;41.13;37.93;;;;;;;7.25;100.00;102339.38;1974755;71;39518;-73
2022/01/31 09:19:44;;;;;;;37.83;35.03;;;;;;;7.31;100.00;102342.63;1879340;74;86191;-74
2022/01/31 09:25:30;;;;;;;36.43;33.73;;;;;;;7.37;100.00;102349.67;1876068;75;86262;-76
2022/01/31 09:31:15;;;;;;;30.00;27.30;;;;;;;7.45;100.00;102360.43;1928168;73;86108;-71
2022/01/31 09:37:00;;;;;;;28.97;27.00;;;;;;;7.58;100.00;102372.75;1957660;71;39720;-75
2022/01/31 09:43:04;;;;;;;30.27;27.97;;;;;;;7.64;100.00;102360.78;1900176;74;86016;-70
2022/01/31 09:48:45;;;;;;;28.30;26.00;;;;;;;7.70;100.00;102380.62;1896029;74;86431;-76
2022/01/31 09:54:30;;;;;;;24.97;23.10;;;;;;;7.85;100.00;102382.47;1886668;75;85958;-69
2022/01/31 10:00:17;;;;;;;25.37;23.50;;;;;;;7.82;100.00;102378.78;1913769;72;85902;-75
2022/01/31 10:06:27;;;;;;;24.33;22.53;;;;;;;7.92;100.00;102395.67;1905180;72;86455;-75
2022/01/31 10:22:08;;;;;;;24.03;22.23;;;;;;;7.92;100.00;102417.81;1988573;69;39488;-75
2022/01/31 10:31:25;;;;;;;21.40;19.80;;;;;;;8.01;100.00;102451.03;1846202;76;935495;-75
2022/01/31 10:34:22;;;;;;;21.10;19.25;;;;;;;8.11;100.00;102456.04;1876333;73;938859;-76
2022/01/31 10:36:52;;;;;;;20.30;18.40;;;;;;;8.12;100.00;102451.67;1855771;73;938786;-78
2022/01/31 10:57:32;;;;;;;18.23;16.40;;;;;;;8.33;100.00;102455.08;1882920;75;86664;-70
2022/01/31 11:03:33;;;;;;;17.17;15.43;;;;;;;8.29;100.00;102471.31;1942076;73;86564;-76
2022/01/31 11:09:21;;;;;;;15.90;14.33;;;;;;;8.41;100.00;102454.23;1907512;74;86663;-75
2022/01/31 11:15:08;;;;;;;13.20;11.90;;;;;;;8.41;100.00;102464.45;1982737;71;39606;-77
2022/01/31 11:20:56;;;;;;;12.23;11.30;;;;;;;8.50;100.00;102463.92;1959704;72;86277;-72
2022/01/31 11:26:43;;;;;;;12.83;11.50;;;;;;;8.54;100.00;102465.68;1808058;78;86020;-74
2022/01/31 11:32:29;;;;;;;12.03;11.03;;;;;;;8.68;100.00;102459.72;1915067;74;86474;-77
2022/01/31 11:38:13;;;;;;;12.93;11.60;;;;;;;8.57;100.00;102497.91;1926541;73;86622;-73
2022/01/31 11:44:02;;;;;;;11.83;10.80;;;;;;;8.78;100.00;102500.73;1809325;78;85352;-76
2022/01/31 11:49:50;;;;;;;12.40;11.47;;;;;;;8.80;100.00;102506.90;1880862;74;86363;-71
2022/01/31 11:55:38;;;;;;;11.93;10.97;;;;;;;8.89;100.00;102512.43;1899047;74;86620;-71
2022/01/31 12:01:24;;;;;;;12.70;11.50;;;;;;;8.96;100.00;102501.23;1915457;73;86409;-72
2022/01/31 12:07:42;;;;;;;13.10;11.90;;;;;;;9.00;100.00;102513.55;1986323;71;39581;-71
2022/01/31 12:13:37;;;;;;;11.33;10.53;;;;;;;8.96;100.00;102521.48;1867347;75;86712;-72
2022/01/31 12:19:35;;;;;;;11.23;10.53;;;;;;;9.07;100.00;102514.32;1912107;74;85382;-78
2022/01/31 12:25:28;;;;;;;11.90;11.20;;;;;;;9.21;100.00;102536.59;1912408;74;85654;-72
2022/01/31 12:31:31;;;;;;;12.03;11.23;;;;;;;9.24;100.00;102541.66;1912442;74;86325;-77
2022/01/31 12:37:26;;;;;;;11.77;10.93;;;;;;;9.05;100.00;102531.71;1911294;73;85537;-75
2022/01/31 12:43:46;;;;;;;11.50;10.83;;;;;;;8.99;100.00;102531.25;1945316;73;86803;-76
2022/01/31 12:49:35;;;;;;;11.77;11.00;;;;;;;8.99;100.00;102516.00;1885304;73;86468;-79
2022/01/31 12:55:22;;;;;;;12.33;11.30;;;;;;;9.01;100.00;102519.41;1916379;73;86668;-77
2022/01/31 13:01:11;;;;;;;11.83;11.10;;;;;;;9.14;100.00;102528.39;1985154;71;39815;-77
2022/01/31 13:06:57;;;;;;;12.13;11.23;;;;;;;9.24;100.00;102520.05;1834475;76;86293;-71
2022/01/31 13:12:42;;;;;;;10.50;9.63;;;;;;;9.26;100.00;102535.36;1799478;78;86646;-79
2022/01/31 13:18:36;;;;;;;10.73;10.10;;;;;;;9.37;100.00;102539.27;1873459;75;86750;-75
2022/01/31 13:24:25;;;;;;;10.60;10.00;;;;;;;9.30;100.00;102529.64;1921171;74;85580;-70
2022/01/31 13:30:15;;;;;;;10.83;10.13;;;;;;;9.35;100.00;102524.23;1980980;71;39649;-76
2022/01/31 13:36:03;;;;;;;11.33;10.73;;;;;;;9.44;100.00;102539.47;1938470;71;39528;-76
2022/01/31 13:41:50;;;;;;;11.80;10.83;;;;;;;9.43;100.00;102552.17;1846264;75;86961;-76
2022/01/31 13:47:41;;;;;;;10.93;10.23;;;;;;;9.47;100.00;102581.12;1866098;75;86035;-70
2022/01/31 13:53:39;;;;;;;11.40;10.70;;;;;;;9.48;100.00;102567.57;1868891;75;86259;-70
2022/01/31 13:59:28;;;;;;;10.50;9.90;;;;;;;9.56;100.00;102572.24;1919110;74;86112;-74
2022/01/31 14:05:24;;;;;;;11.30;10.47;;;;;;;9.53;100.00;102568.56;1910439;72;86273;-74
2022/01/31 14:11:17;;;;;;;11.97;11.10;;;;;;;9.55;100.00;102578.87;1927735;71;86523;-75
2022/01/31 14:17:05;;;;;;;11.83;11.10;;;;;;;9.51;100.00;102575.41;1986459;71;39767;-70
2022/01/31 14:22:58;;;;;;;12.17;11.33;;;;;;;9.48;100.00;102592.53;1851346;76;86953;-70
2022/01/31 14:28:51;;;;;;;11.60;11.00;;;;;;;9.62;100.00;102591.27;1925046;72;86297;-70
2022/01/31 14:34:46;;;;;;;12.07;11.10;;;;;;;9.48;100.00;102575.36;1895214;74;86236;-75
2022/01/31 14:41:04;;;;;;;12.60;11.60;;;;;;;9.45;100.00;102580.00;1880123;75;86427;-71
2022/01/31 14:52:35;;;;;;;13.10;11.87;;;;;;;9.58;100.00;102582.55;1872003;75;86064;-76
2022/01/31 14:58:21;;;;;;;12.30;11.10;;;;;;;9.62;100.00;102597.36;1936936;72;86134;-77
2022/01/31 15:04:07;;;;;;;12.10;11.30;;;;;;;9.41;100.00;102623.70;1915373;73;39466;-71
2022/01/31 15:09:51;;;;;;;12.40;11.30;;;;;;;9.38;100.00;102628.30;1974819;72;85462;-75
2022/01/31 15:15:35;;;;;;;11.93;11.13;;;;;;;9.34;100.00;102632.63;1881423;73;86179;-70
2022/01/31 15:21:21;;;;;;;11.37;10.50;;;;;;;9.37;100.00;102631.61;1922428;74;85967;-70
2022/01/31 15:27:06;;;;;;;10.83;10.13;;;;;;;9.17;100.00;102655.13;1985573;71;39558;-75
2022/01/31 15:32:51;;;;;;;11.77;10.70;;;;;;;8.98;100.00;102650.16;1852167;76;86349;-76
2022/01/31 15:38:36;;;;;;;11.37;10.67;;;;;;;8.79;100.00;102657.59;1868769;74;86387;-73
2022/01/31 15:44:28;;;;;;;11.20;10.40;;;;;;;8.84;100.00;102663.84;1911700;72;86329;-74
2022/01/31 15:50:13;;;;;;;11.63;10.47;;;;;;;8.79;100.00;102660.37;1937379;73;85294;-71
2022/01/31 15:55:57;;;;;;;11.97;11.00;;;;;;;8.71;100.00;102674.52;1803527;78;86201;-74
2022/01/31 16:01:42;;;;;;;12.17;11.17;;;;;;;8.67;100.00;102682.98;1810533;78;86155;-75
2022/01/31 16:07:25;;;;;;;12.10;11.07;;;;;;;8.72;100.00;102695.62;1909437;74;85371;-68
2022/01/31 16:13:10;;;;;;;12.50;11.50;;;;;;;8.82;100.00;102693.69;1985460;71;39481;-74
2022/01/31 16:18:55;;;;;;;12.60;11.40;;;;;;;8.73;100.00;102695.09;1829618;76;86433;-72
2022/01/31 16:24:39;;;;;;;14.70;13.23;;;;;;;8.79;100.00;102704.70;1870167;75;86051;-76
2022/01/31 16:30:24;;;;;;;16.43;15.10;;;;;;;8.85;100.00;102719.58;1898354;72;86473;-77
2022/01/31 16:36:08;;;;;;;13.00;11.73;;;;;;;8.86;100.00;102733.72;1956592;71;39537;-74
2022/01/31 16:41:53;;;;;;;13.37;12.03;;;;;;;8.86;100.00;102719.33;1879750;74;86272;-79
2022/01/31 16:47:41;;;;;;;13.87;12.77;;;;;;;8.72;100.00;102716.94;1914903;73;86010;-75
2022/01/31 16:53:28;;;;;;;13.40;12.20;;;;;;;8.64;100.00;102726.39;1912970;73;86423;-74
2022/01/31 16:59:12;;;;;;;13.60;11.97;;;;;;;8.47;100.00;102719.72;1977569;71;39878;-78
2022/01/31 17:04:55;;;;;;;13.23;12.03;;;;;;;8.24;100.00;102721.66;1835984;76;86305;-74
2022/01/31 17:10:43;;;;;;;14.83;13.33;;;;;;;8.24;100.00;102718.89;1882694;74;85111;-73
2022/01/31 17:16:29;;;;;;;14.97;13.67;;;;;;;8.19;100.00;102725.63;1906775;72;86488;-74
2022/01/31 17:22:13;;;;;;;15.27;14.10;;;;;;;8.25;100.00;102745.52;1923185;73;86564;-75
2022/01/31 17:27:58;;;;;;;16.50;15.00;;;;;;;8.11;100.00;102736.98;1800352;78;86721;-73
2022/01/31 17:33:42;;;;;;;16.37;14.80;;;;;;;7.99;100.00;102751.22;1808651;78;85548;-77
2022/01/31 17:39:29;;;;;;;19.60;17.60;;;;;;;7.88;100.00;102766.58;1908382;74;85955;-78
2022/01/31 17:45:14;;;;;;;23.20;21.33;;;;;;;7.73;100.00;102763.27;1916342;72;85526;-72
2022/01/31 17:50:59;;;;;;;22.80;20.70;;;;;;;7.68;100.00;102770.84;1811811;78;86192;-77
2022/01/31 17:59:59;;;;;;;22.33;20.53;;;;;;;7.44;100.00;102772.96;1813851;78;86563;-71
2022/01/31 18:05:42;;;;;;;23.23;21.27;;;;;;;7.46;100.00;102777.72;1808116;78;86254;-73
2022/01/31 18:11:27;;;;;;;24.63;22.93;;;;;;;7.26;100.00;102779.17;1930883;73;86292;-74
2022/01/31 18:17:15;;;;;;;24.87;23.07;;;;;;;7.23;100.00;102792.02;1947144;73;86258;-74
2022/01/31 18:23:00;;;;;;;25.97;24.07;;;;;;;7.20;100.00;102795.23;1987837;71;39692;-74
2022/01/31 18:28:44;;;;;;;27.13;25.13;;;;;;;7.26;100.00;102794.91;1886340;74;86090;-79
2022/01/31 18:34:29;;;;;;;27.80;25.87;;;;;;;7.29;100.00;102795.84;1872415;75;86532;-73
2022/01/31 18:40:14;;;;;;;27.90;25.83;;;;;;;7.41;100.00;102806.55;1925813;71;86201;-80
2022/01/31 18:45:59;;;;;;;29.00;26.80;;;;;;;7.19;100.00;102799.05;1872333;74;86550;-79
2022/01/31 18:51:43;;;;;;;33.27;30.67;;;;;;;7.09;100.00;102810.24;1800859;78;86012;-72
2022/01/31 18:57:28;;;;;;;35.43;32.83;;;;;;;7.00;100.00;102819.81;1897290;73;86603;-74
2022/01/31 19:03:13;;;;;;;41.67;38.87;;;;;;;6.78;100.00;102818.65;1836207;77;86565;-72
2022/01/31 19:09:00;;;;;;;49.17;45.80;;;;;;;6.68;100.00;102804.40;1849779;76;86347;-73
2022/01/31 19:20:48;;;;;;;52.13;48.83;;;;;;;6.55;100.00;102817.34;1877736;75;85471;-71
2022/01/31 19:26:33;;;;;;;55.10;51.80;;;;;;;6.63;100.00;102833.17;1888599;75;86257;-79
2022/01/31 19:32:17;;;;;;;53.60;50.17;;;;;;;6.53;100.00;102827.76;1915412;73;85985;-73
2022/01/31 19:38:04;;;;;;;54.27;50.97;;;;;;;6.71;100.00;102839.05;1985699;71;39384;-80
2022/01/31 19:43:51;;;;;;;54.33;51.03;;;;;;;6.82;100.00;102846.16;1821183;76;86662;-78
2022/01/31 19:49:35;;;;;;;53.53;50.37;;;;;;;7.02;100.00;102850.82;1900153;73;86378;-78
2022/01/31 19:55:21;;;;;;;53.27;49.63;;;;;;;7.13;100.00;102835.85;1911172;74;86287;-72
2022/01/31 20:01:07;;;;;;;56.27;52.60;;;;;;;7.07;100.00;102834.45;1985547;71;39629;-73
2022/01/31 20:06:53;;;;;;;54.03;50.73;;;;;;;6.98;100.00;102848.17;1861150;76;86610;-71
2022/01/31 20:12:38;;;;;;;53.90;50.00;;;;;;;6.90;100.00;102827.14;1909631;73;86340;-73
2022/01/31 20:18:23;;;;;;;56.17;52.67;;;;;;;7.10;100.00;102834.88;1908752;74;86282;-73
2022/01/31 20:24:09;;;;;;;54.40;50.70;;;;;;;7.18;100.00;102831.92;1922398;71;39716;-70
2022/01/31 20:29:54;;;;;;;56.83;52.93;;;;;;;7.06;100.00;102828.64;1849503;76;86596;-74
2022/01/31 20:35:39;;;;;;;55.33;51.80;;;;;;;6.94;100.00;102831.17;1882447;73;86245;-73
2022/01/31 20:41:35;;;;;;;55.47;51.90;;;;;;;6.86;100.00;102838.30;1909432;74;85719;-79
2022/01/31 20:47:10;;;;;;;54.90;51.30;;;;;;;6.83;100.00;102834.58;1974913;70;39529;-75
2022/01/31 20:52:56;;;;;;;56.83;52.97;;;;;;;6.67;100.00;102836.39;1837154;76;86460;-75
2022/01/31 20:58:41;;;;;;;56.00;52.20;;;;;;;6.66;100.00;102823.63;1830169;76;86654;-73
2022/01/31 21:04:10;;;;;;;57.10;53.30;;;;;;;6.60;100.00;102834.98;1955988;71;39613;-74
2022/01/31 21:09:55;;;;;;;59.00;55.17;;;;;;;6.52;100.00;102843.47;1828758;76;86658;-75
2022/01/31 21:15:41;;;;;;;57.87;53.90;;;;;;;6.41;100.00;102839.95;1890491;73;86376;-76
2022/01/31 21:21:26;;;;;;;58.87;55.03;;;;;;;6.52;100.00;102842.09;1917980;74;86359;-74
2022/01/31 21:27:11;;;;;;;57.03;53.30;;;;;;;6.43;100.00;102846.63;1941167;71;39548;-73
2022/01/31 21:32:56;;;;;;;57.13;53.40;;;;;;;6.28;100.00;102838.55;1842453;76;86018;-71
2022/01/31 21:38:49;;;;;;;60.30;56.17;;;;;;;6.24;100.00;102829.84;1810238;77;85568;-74
2022/01/31 21:44:34;;;;;;;59.63;55.53;;;;;;;6.26;100.00;102826.32;1870054;74;86155;-74
2022/01/31 21:50:19;;;;;;;57.07;53.27;;;;;;;6.37;100.00;102819.35;1903001;72;86085;-75
2022/01/31 21:56:03;;;;;;;58.87;54.70;;;;;;;6.43;100.00;102808.84;1926533;71;39709;-70
2022/01/31 22:01:47;;;;;;;56.00;52.10;;;;;;;6.52;100.00;102798.44;1831547;75;86060;-72
2022/01/31 22:07:30;;;;;;;57.67;53.87;;;;;;;6.71;100.00;102792.95;1877388;75;86094;-75
2022/01/31 22:13:13;;;;;;;57.83;53.90;;;;;;;6.69;100.00;102794.20;1935564;73;86273;-75
2022/01/31 22:18:58;;;;;;;57.40;53.60;;;;;;;6.78;100.00;102788.80;1850718;76;86232;-74
2022/01/31 22:24:43;;;;;;;57.27;53.37;;;;;;;6.95;100.00;102786.44;1807460;78;86706;-75
2022/01/31 22:30:27;;;;;;;57.60;53.60;;;;;;;7.06;100.00;102771.44;1904720;74;86535;-73
2022/01/31 22:36:11;;;;;;;54.13;50.47;;;;;;;7.11;100.00;102748.16;1976543;71;39526;-74
2022/01/31 22:41:56;;;;;;;56.23;52.53;;;;;;;7.11;100.00;102737.09;1850487;76;86094;-74
2022/01/31 22:47:40;;;;;;;57.07;53.20;;;;;;;7.12;100.00;102730.52;1813550;77;86584;-73
2022/01/31 22:53:25;;;;;;;57.33;53.73;;;;;;;7.25;100.00;102748.45;1909079;74;86150;-73
2022/01/31 22:59:09;;;;;;;61.30;57.10;;;;;;;7.33;100.00;102755.64;1984825;71;39679;-74
2022/01/31 23:04:53;;;;;;;61.60;57.70;;;;;;;7.41;100.00;102738.81;1838697;76;85638;-74
2022/01/31 23:10:37;;;;;;;63.63;59.67;;;;;;;7.44;100.00;102725.95;1881027;73;86436;-74
2022/01/31 23:16:23;;;;;;;64.17;59.90;;;;;;;7.43;100.00;102716.48;1938642;73;86083;-73
2022/01/31 23:22:44;;;;;;;63.93;59.93;;;;;;;7.42;100.00;102693.52;1971874;71;39547;-75
